sensor_id;sensor_type;location;lat;lon;timestamp;P1;durP1;ratioP1;P2;durP2;ratioP2
65092;SDS011;52025;50.288;2.794;2022-08-07T04:34:09;6.50;;;3.83;;
65092;SDS011;52025;50.288;2.794;2022-08-07T04:36:34;6.10;;;3.85;;
65092;SDS011;52025;50.288;2.794;2022-08-07T04:39:00;7.20;;;3.95;;
65092;SDS011;52025;50.288;2.794;2022-08-07T04:41:38;7.18;;;4.57;;
65092;SDS011;52025;50.288;2.794;2022-08-07T04:44:03;8.50;;;4.15;;
65092;SDS011;52025;50.288;2.794;2022-08-07T04:46:35;7.97;;;3.95;;
65092;SDS011;52025;50.288;2.794;2022-08-07T04:54:02;8.00;;;3.88;;
65092;SDS011;52025;50.288;2.794;2022-08-07T04:56:41;6.85;;;4.15;;
65092;SDS011;52025;50.288;2.794;2022-08-07T04:59:12;6.50;;;3.92;;
65092;SDS011;52025;50.288;2.794;2022-08-07T05:07:07;7.93;;;4.35;;
65092;SDS011;52025;50.288;2.794;2022-08-07T05:09:55;8.93;;;5.55;;
65092;SDS011;52025;50.288;2.794;2022-08-07T05:12:22;8.43;;;5.00;;
65092;SDS011;52025;50.288;2.794;2022-08-07T05:14:50;9.27;;;5.00;;
65092;SDS011;52025;50.288;2.794;2022-08-07T05:17:17;10.38;;;5.90;;
65092;SDS011;52025;50.288;2.794;2022-08-07T05:19:46;10.40;;;5.38;;
65092;SDS011;52025;50.288;2.794;2022-08-07T05:22:13;9.23;;;5.85;;
65092;SDS011;52025;50.288;2.794;2022-08-07T05:24:38;9.75;;;5.80;;
65092;SDS011;52025;50.288;2.794;2022-08-07T05:27:04;9.93;;;5.70;;
65092;SDS011;52025;50.288;2.794;2022-08-07T05:29:32;7.75;;;5.53;;
65092;SDS011;52025;50.288;2.794;2022-08-07T05:32:01;9.65;;;5.78;;
65092;SDS011;52025;50.288;2.794;2022-08-07T05:34:26;10.55;;;5.45;;
65092;SDS011;52025;50.288;2.794;2022-08-07T05:36:52;10.15;;;5.55;;
65092;SDS011;52025;50.288;2.794;2022-08-07T05:39:21;8.63;;;4.85;;
65092;SDS011;52025;50.288;2.794;2022-08-07T05:41:46;8.90;;;5.85;;
65092;SDS011;52025;50.288;2.794;2022-08-07T05:44:13;8.02;;;5.32;;
65092;SDS011;52025;50.288;2.794;2022-08-07T05:46:41;9.57;;;5.07;;
65092;SDS011;52025;50.288;2.794;2022-08-07T05:49:07;7.75;;;4.82;;
65092;SDS011;52025;50.288;2.794;2022-08-07T05:51:33;9.02;;;4.80;;
65092;SDS011;52025;50.288;2.794;2022-08-07T05:53:59;7.75;;;4.60;;
65092;SDS011;52025;50.288;2.794;2022-08-07T05:56:24;6.25;;;4.10;;
65092;SDS011;52025;50.288;2.794;2022-08-07T05:58:50;8.60;;;4.38;;
65092;SDS011;52025;50.288;2.794;2022-08-07T06:01:16;7.82;;;4.75;;
65092;SDS011;52025;50.288;2.794;2022-08-07T06:03:44;8.73;;;4.88;;
65092;SDS011;52025;50.288;2.794;2022-08-07T06:06:11;8.18;;;4.68;;
65092;SDS011;52025;50.288;2.794;2022-08-07T06:08:38;7.05;;;3.90;;
65092;SDS011;52025;50.288;2.794;2022-08-07T06:11:04;7.53;;;4.32;;
65092;SDS011;52025;50.288;2.794;2022-08-07T06:13:30;6.03;;;3.63;;
65092;SDS011;52025;50.288;2.794;2022-08-07T06:15:55;7.45;;;3.72;;
65092;SDS011;52025;50.288;2.794;2022-08-07T06:18:21;7.45;;;3.42;;
65092;SDS011;52025;50.288;2.794;2022-08-07T06:20:47;6.10;;;3.22;;
65092;SDS011;52025;50.288;2.794;2022-08-07T06:23:12;6.18;;;3.60;;
65092;SDS011;52025;50.288;2.794;2022-08-07T06:25:39;5.85;;;3.20;;
65092;SDS011;52025;50.288;2.794;2022-08-07T06:28:06;5.57;;;3.20;;
65092;SDS011;52025;50.288;2.794;2022-08-07T06:30:31;4.93;;;2.95;;
65092;SDS011;52025;50.288;2.794;2022-08-07T06:32:57;6.32;;;3.50;;
65092;SDS011;52025;50.288;2.794;2022-08-07T06:35:23;6.68;;;2.90;;
65092;SDS011;52025;50.288;2.794;2022-08-07T06:37:48;5.65;;;3.38;;
65092;SDS011;52025;50.288;2.794;2022-08-07T06:40:13;5.43;;;3.33;;
65092;SDS011;52025;50.288;2.794;2022-08-07T06:42:46;4.72;;;2.78;;
65092;SDS011;52025;50.288;2.794;2022-08-07T06:45:15;6.10;;;3.00;;
65092;SDS011;52025;50.288;2.794;2022-08-07T06:47:41;6.30;;;2.78;;
65092;SDS011;52025;50.288;2.794;2022-08-07T06:50:06;5.72;;;2.55;;
65092;SDS011;52025;50.288;2.794;2022-08-07T06:52:34;4.70;;;2.67;;
65092;SDS011;52025;50.288;2.794;2022-08-07T06:54:59;5.38;;;2.88;;
65092;SDS011;52025;50.288;2.794;2022-08-07T06:57:25;5.50;;;2.90;;
65092;SDS011;52025;50.288;2.794;2022-08-07T06:59:51;4.05;;;2.15;;
65092;SDS011;52025;50.288;2.794;2022-08-07T07:02:17;4.82;;;2.30;;
65092;SDS011;52025;50.288;2.794;2022-08-07T07:04:45;4.47;;;2.28;;
65092;SDS011;52025;50.288;2.794;2022-08-07T07:07:11;3.55;;;1.30;;
65092;SDS011;52025;50.288;2.794;2022-08-07T07:09:37;2.33;;;0.98;;
65092;SDS011;52025;50.288;2.794;2022-08-07T07:12:18;1.77;;;0.80;;
65092;SDS011;52025;50.288;2.794;2022-08-07T07:17:17;2.13;;;0.85;;
65092;SDS011;52025;50.288;2.794;2022-08-07T07:19:48;3.35;;;1.23;;
65092;SDS011;52025;50.288;2.794;2022-08-07T07:22:15;1.60;;;0.93;;
65092;SDS011;52025;50.288;2.794;2022-08-07T07:24:41;2.20;;;0.80;;
65092;SDS011;52025;50.288;2.794;2022-08-07T07:27:07;1.20;;;0.75;;
65092;SDS011;52025;50.288;2.794;2022-08-07T07:29:37;2.55;;;0.90;;
65092;SDS011;52025;50.288;2.794;2022-08-07T07:32:04;1.35;;;0.80;;
65092;SDS011;52025;50.288;2.794;2022-08-07T07:34:31;2.85;;;1.00;;
65092;SDS011;52025;50.288;2.794;2022-08-07T07:36:58;1.80;;;0.88;;
65092;SDS011;52025;50.288;2.794;2022-08-07T07:39:27;1.20;;;0.60;;
65092;SDS011;52025;50.288;2.794;2022-08-07T07:41:53;0.95;;;0.60;;
65092;SDS011;52025;50.288;2.794;2022-08-07T07:44:20;1.73;;;0.90;;
65092;SDS011;52025;50.288;2.794;2022-08-07T07:46:48;0.98;;;0.55;;
65092;SDS011;52025;50.288;2.794;2022-08-07T07:49:16;1.48;;;0.60;;
65092;SDS011;52025;50.288;2.794;2022-08-07T07:51:42;2.55;;;0.80;;
65092;SDS011;52025;50.288;2.794;2022-08-07T07:54:11;1.25;;;0.65;;
65092;SDS011;52025;50.288;2.794;2022-08-07T07:56:38;3.05;;;1.30;;
65092;SDS011;52025;50.288;2.794;2022-08-07T07:59:07;2.42;;;0.80;;
65092;SDS011;52025;50.288;2.794;2022-08-07T08:01:33;2.10;;;1.00;;
65092;SDS011;52025;50.288;2.794;2022-08-07T08:04:02;2.63;;;1.20;;
65092;SDS011;52025;50.288;2.794;2022-08-07T08:06:28;2.42;;;0.90;;
65092;SDS011;52025;50.288;2.794;2022-08-07T08:08:56;1.65;;;0.93;;
65092;SDS011;52025;50.288;2.794;2022-08-07T08:11:22;1.52;;;0.80;;
65092;SDS011;52025;50.288;2.794;2022-08-07T08:13:48;1.90;;;0.88;;
65092;SDS011;52025;50.288;2.794;2022-08-07T08:16:15;1.75;;;0.90;;
65092;SDS011;52025;50.288;2.794;2022-08-07T08:18:41;0.68;;;0.50;;
65092;SDS011;52025;50.288;2.794;2022-08-07T08:21:07;1.50;;;0.80;;
65092;SDS011;52025;50.288;2.794;2022-08-07T08:23:53;1.58;;;0.55;;
65092;SDS011;52025;50.288;2.794;2022-08-07T08:26:38;1.63;;;0.80;;
65092;SDS011;52025;50.288;2.794;2022-08-07T08:29:22;2.03;;;0.88;;
65092;SDS011;52025;50.288;2.794;2022-08-07T08:31:51;1.80;;;0.85;;
65092;SDS011;52025;50.288;2.794;2022-08-07T08:34:16;3.08;;;0.90;;
65092;SDS011;52025;50.288;2.794;2022-08-07T08:40:02;2.22;;;0.80;;
65092;SDS011;52025;50.288;2.794;2022-08-07T08:42:33;0.75;;;0.70;;
65092;SDS011;52025;50.288;2.794;2022-08-07T08:45:12;2.45;;;0.90;;
65092;SDS011;52025;50.288;2.794;2022-08-07T08:50:40;1.65;;;1.00;;
65092;SDS011;52025;50.288;2.794;2022-08-07T08:55:40;2.05;;;0.95;;
65092;SDS011;52025;50.288;2.794;2022-08-07T08:58:13;1.80;;;1.00;;
65092;SDS011;52025;50.288;2.794;2022-08-07T09:00:41;2.35;;;1.05;;
65092;SDS011;52025;50.288;2.794;2022-08-07T09:03:16;0.75;;;0.68;;
65092;SDS011;52025;50.288;2.794;2022-08-07T09:43:57;3.35;;;1.05;;
65092;SDS011;52025;50.288;2.794;2022-08-07T10:38:18;2.10;;;0.80;;
65092;SDS011;52025;50.288;2.794;2022-08-07T10:45:59;1.48;;;0.70;;
65092;SDS011;52025;50.288;2.794;2022-08-07T10:48:41;1.60;;;0.80;;
65092;SDS011;52025;50.288;2.794;2022-08-07T10:51:16;1.50;;;0.70;;
65092;SDS011;52025;50.288;2.794;2022-08-07T10:59:24;4.28;;;1.13;;
65092;SDS011;52025;50.288;2.794;2022-08-07T11:07:27;2.22;;;1.10;;
65092;SDS011;52025;50.288;2.794;2022-08-07T11:10:00;2.83;;;1.38;;
65092;SDS011;52025;50.288;2.794;2022-08-07T11:12:31;2.58;;;1.00;;
65092;SDS011;52025;50.288;2.794;2022-08-07T11:15:00;0.57;;;0.57;;
65092;SDS011;52025;50.288;2.794;2022-08-07T11:17:31;2.38;;;0.85;;
65092;SDS011;52025;50.288;2.794;2022-08-07T11:30:10;1.38;;;0.70;;
65092;SDS011;52025;50.288;2.794;2022-08-07T11:32:38;2.60;;;0.80;;
65092;SDS011;52025;50.288;2.794;2022-08-07T11:35:06;1.58;;;1.00;;
65092;SDS011;52025;50.288;2.794;2022-08-07T11:40:35;2.75;;;1.30;;
65092;SDS011;52025;50.288;2.794;2022-08-07T11:53:49;2.50;;;1.10;;
65092;SDS011;52025;50.288;2.794;2022-08-07T12:06:48;1.88;;;0.70;;
65092;SDS011;52025;50.288;2.794;2022-08-07T12:14:26;1.42;;;0.85;;
65092;SDS011;52025;50.288;2.794;2022-08-07T12:17:00;1.55;;;0.80;;
65092;SDS011;52025;50.288;2.794;2022-08-07T12:22:02;1.13;;;0.53;;
65092;SDS011;52025;50.288;2.794;2022-08-07T12:24:33;2.53;;;1.35;;
65092;SDS011;52025;50.288;2.794;2022-08-07T12:27:07;1.65;;;1.00;;
65092;SDS011;52025;50.288;2.794;2022-08-07T12:34:33;0.80;;;0.60;;
65092;SDS011;52025;50.288;2.794;2022-08-07T12:36:59;1.67;;;0.90;;
65092;SDS011;52025;50.288;2.794;2022-08-07T12:39:26;2.33;;;0.95;;
65092;SDS011;52025;50.288;2.794;2022-08-07T12:41:53;0.95;;;0.57;;
65092;SDS011;52025;50.288;2.794;2022-08-07T12:44:19;1.10;;;0.80;;
65092;SDS011;52025;50.288;2.794;2022-08-07T12:46:56;1.30;;;0.57;;
65092;SDS011;52025;50.288;2.794;2022-08-07T12:52:12;0.47;;;0.47;;
65092;SDS011;52025;50.288;2.794;2022-08-07T12:57:24;3.00;;;0.90;;
65092;SDS011;52025;50.288;2.794;2022-08-07T12:59:51;2.75;;;1.05;;
65092;SDS011;52025;50.288;2.794;2022-08-07T13:13:03;0.65;;;0.50;;
65092;SDS011;52025;50.288;2.794;2022-08-07T13:23:24;0.70;;;0.60;;
65092;SDS011;52025;50.288;2.794;2022-08-07T13:28:26;1.00;;;0.60;;
65092;SDS011;52025;50.288;2.794;2022-08-07T13:30:57;1.40;;;0.70;;
65092;SDS011;52025;50.288;2.794;2022-08-07T13:35:56;1.73;;;0.70;;
65092;SDS011;52025;50.288;2.794;2022-08-07T13:38:33;1.38;;;0.90;;
65092;SDS011;52025;50.288;2.794;2022-08-07T13:41:07;2.35;;;0.90;;
65092;SDS011;52025;50.288;2.794;2022-08-07T13:43:40;1.52;;;0.73;;
65092;SDS011;52025;50.288;2.794;2022-08-07T13:46:05;0.50;;;0.50;;
65092;SDS011;52025;50.288;2.794;2022-08-07T13:48:31;1.27;;;0.60;;
65092;SDS011;52025;50.288;2.794;2022-08-07T13:50:58;0.90;;;0.70;;
65092;SDS011;52025;50.288;2.794;2022-08-07T13:53:31;1.58;;;0.80;;
65092;SDS011;52025;50.288;2.794;2022-08-07T13:55:59;0.88;;;0.60;;
65092;SDS011;52025;50.288;2.794;2022-08-07T13:58:25;1.20;;;0.70;;
65092;SDS011;52025;50.288;2.794;2022-08-07T14:01:14;2.00;;;1.00;;
65092;SDS011;52025;50.288;2.794;2022-08-07T14:03:39;2.67;;;0.98;;
65092;SDS011;52025;50.288;2.794;2022-08-07T14:06:08;1.70;;;0.70;;
65092;SDS011;52025;50.288;2.794;2022-08-07T14:08:38;1.27;;;0.75;;
65092;SDS011;52025;50.288;2.794;2022-08-07T14:11:07;0.75;;;0.50;;
65092;SDS011;52025;50.288;2.794;2022-08-07T14:13:34;0.43;;;0.40;;
65092;SDS011;52025;50.288;2.794;2022-08-07T14:16:02;0.55;;;0.50;;
65092;SDS011;52025;50.288;2.794;2022-08-07T14:18:36;2.08;;;0.82;;
65092;SDS011;52025;50.288;2.794;2022-08-07T14:23:36;3.05;;;0.98;;
65092;SDS011;52025;50.288;2.794;2022-08-07T14:26:11;0.88;;;0.52;;
65092;SDS011;52025;50.288;2.794;2022-08-07T14:28:43;1.48;;;0.80;;
65092;SDS011;52025;50.288;2.794;2022-08-07T14:31:16;1.33;;;0.80;;
65092;SDS011;52025;50.288;2.794;2022-08-07T14:33:45;0.77;;;0.60;;
65092;SDS011;52025;50.288;2.794;2022-08-07T14:36:11;1.52;;;0.80;;
65092;SDS011;52025;50.288;2.794;2022-08-07T14:38:40;1.48;;;0.80;;
65092;SDS011;52025;50.288;2.794;2022-08-07T14:41:10;1.10;;;0.70;;
65092;SDS011;52025;50.288;2.794;2022-08-07T14:43:39;1.27;;;0.70;;
65092;SDS011;52025;50.288;2.794;2022-08-07T14:46:05;1.05;;;0.65;;
65092;SDS011;52025;50.288;2.794;2022-08-07T14:48:35;0.80;;;0.60;;
65092;SDS011;52025;50.288;2.794;2022-08-07T14:51:05;1.15;;;0.57;;
65092;SDS011;52025;50.288;2.794;2022-08-07T14:53:32;1.27;;;0.57;;
65092;SDS011;52025;50.288;2.794;2022-08-07T14:56:01;2.13;;;0.90;;
65092;SDS011;52025;50.288;2.794;2022-08-07T14:58:30;1.00;;;0.70;;
65092;SDS011;52025;50.288;2.794;2022-08-07T15:00:56;1.38;;;0.60;;
65092;SDS011;52025;50.288;2.794;2022-08-07T15:03:23;1.00;;;0.60;;
65092;SDS011;52025;50.288;2.794;2022-08-07T15:05:50;0.93;;;0.68;;
65092;SDS011;52025;50.288;2.794;2022-08-07T15:08:20;2.55;;;0.70;;
65092;SDS011;52025;50.288;2.794;2022-08-07T15:10:46;1.05;;;0.65;;
65092;SDS011;52025;50.288;2.794;2022-08-07T15:13:20;1.77;;;0.93;;
65092;SDS011;52025;50.288;2.794;2022-08-07T15:15:50;0.90;;;0.60;;
65092;SDS011;52025;50.288;2.794;2022-08-07T15:18:18;1.30;;;0.70;;
65092;SDS011;52025;50.288;2.794;2022-08-07T15:20:47;0.93;;;0.52;;
65092;SDS011;52025;50.288;2.794;2022-08-07T15:23:18;0.70;;;0.60;;
65092;SDS011;52025;50.288;2.794;2022-08-07T15:25:52;0.70;;;0.40;;
65092;SDS011;52025;50.288;2.794;2022-08-07T15:28:19;1.15;;;0.60;;
65092;SDS011;52025;50.288;2.794;2022-08-07T15:30:46;0.50;;;0.45;;
65092;SDS011;52025;50.288;2.794;2022-08-07T15:33:17;1.40;;;0.70;;
65092;SDS011;52025;50.288;2.794;2022-08-07T15:35:43;1.05;;;0.60;;
65092;SDS011;52025;50.288;2.794;2022-08-07T15:38:13;1.05;;;0.60;;
65092;SDS011;52025;50.288;2.794;2022-08-07T15:40:39;0.47;;;0.47;;
65092;SDS011;52025;50.288;2.794;2022-08-07T15:45:35;1.45;;;0.70;;
65092;SDS011;52025;50.288;2.794;2022-08-07T15:48:22;1.63;;;0.82;;
65092;SDS011;52025;50.288;2.794;2022-08-07T15:50:47;0.90;;;0.50;;
65092;SDS011;52025;50.288;2.794;2022-08-07T15:53:24;1.25;;;0.70;;
65092;SDS011;52025;50.288;2.794;2022-08-07T15:55:51;1.48;;;0.80;;
65092;SDS011;52025;50.288;2.794;2022-08-07T15:58:21;0.88;;;0.60;;
65092;SDS011;52025;50.288;2.794;2022-08-07T16:00:50;0.50;;;0.40;;
65092;SDS011;52025;50.288;2.794;2022-08-07T16:03:16;1.08;;;0.50;;
65092;SDS011;52025;50.288;2.794;2022-08-07T16:05:44;0.88;;;0.52;;
65092;SDS011;52025;50.288;2.794;2022-08-07T16:08:11;1.02;;;0.60;;
65092;SDS011;52025;50.288;2.794;2022-08-07T16:10:37;0.88;;;0.50;;
65092;SDS011;52025;50.288;2.794;2022-08-07T16:15:36;0.93;;;0.60;;
65092;SDS011;52025;50.288;2.794;2022-08-07T16:26:16;1.80;;;0.90;;
65092;SDS011;52025;50.288;2.794;2022-08-07T16:34:05;1.23;;;0.65;;
65092;SDS011;52025;50.288;2.794;2022-08-07T16:41:48;2.28;;;0.90;;
65092;SDS011;52025;50.288;2.794;2022-08-07T16:47:09;2.92;;;0.95;;
65092;SDS011;52025;50.288;2.794;2022-08-07T17:02:19;1.02;;;0.75;;
65092;SDS011;52025;50.288;2.794;2022-08-07T17:10:06;1.33;;;0.70;;
65092;SDS011;52025;50.288;2.794;2022-08-07T17:18:01;1.25;;;0.70;;
65092;SDS011;52025;50.288;2.794;2022-08-07T17:20:35;2.63;;;1.00;;
65092;SDS011;52025;50.288;2.794;2022-08-07T17:26:00;0.73;;;0.60;;
65092;SDS011;52025;50.288;2.794;2022-08-07T17:28:31;2.13;;;0.90;;
65092;SDS011;52025;50.288;2.794;2022-08-07T17:31:03;2.90;;;0.90;;
65092;SDS011;52025;50.288;2.794;2022-08-07T17:33:31;1.67;;;0.90;;
65092;SDS011;52025;50.288;2.794;2022-08-07T17:38:38;2.53;;;1.10;;
65092;SDS011;52025;50.288;2.794;2022-08-07T17:44:05;2.22;;;0.80;;
65092;SDS011;52025;50.288;2.794;2022-08-07T17:46:39;1.48;;;0.95;;
65092;SDS011;52025;50.288;2.794;2022-08-07T17:49:09;2.85;;;1.00;;
65092;SDS011;52025;50.288;2.794;2022-08-07T17:51:44;1.83;;;0.90;;
65092;SDS011;52025;50.288;2.794;2022-08-07T17:54:19;2.05;;;0.90;;
65092;SDS011;52025;50.288;2.794;2022-08-07T17:56:48;1.63;;;1.00;;
65092;SDS011;52025;50.288;2.794;2022-08-07T17:59:20;3.20;;;1.10;;
65092;SDS011;52025;50.288;2.794;2022-08-07T18:01:49;1.77;;;0.98;;
65092;SDS011;52025;50.288;2.794;2022-08-07T18:04:31;1.05;;;0.60;;
65092;SDS011;52025;50.288;2.794;2022-08-07T18:09:31;1.95;;;0.90;;
65092;SDS011;52025;50.288;2.794;2022-08-07T18:12:04;1.27;;;0.90;;
65092;SDS011;52025;50.288;2.794;2022-08-07T19:08:48;1.67;;;0.63;;
65092;SDS011;52025;50.288;2.794;2022-08-07T19:11:15;1.40;;;0.90;;
65092;SDS011;52025;50.288;2.794;2022-08-07T19:19:03;2.08;;;0.90;;
65092;SDS011;52025;50.288;2.794;2022-08-07T19:24:00;2.25;;;1.17;;
65092;SDS011;52025;50.288;2.794;2022-08-07T19:26:32;2.30;;;1.02;;
65092;SDS011;52025;50.288;2.794;2022-08-07T19:28:59;1.45;;;0.82;;
65092;SDS011;52025;50.288;2.794;2022-08-07T19:31:28;1.85;;;0.80;;
65092;SDS011;52025;50.288;2.794;2022-08-07T19:33:54;0.68;;;0.50;;
65092;SDS011;52025;50.288;2.794;2022-08-07T19:36:20;1.05;;;0.60;;
65092;SDS011;52025;50.288;2.794;2022-08-07T19:38:49;1.20;;;0.60;;
65092;SDS011;52025;50.288;2.794;2022-08-07T19:41:16;2.15;;;0.90;;
65092;SDS011;52025;50.288;2.794;2022-08-07T19:43:43;3.63;;;1.00;;
65092;SDS011;52025;50.288;2.794;2022-08-07T19:46:10;3.13;;;1.00;;
65092;SDS011;52025;50.288;2.794;2022-08-07T19:51:01;2.27;;;1.03;;
65092;SDS011;52025;50.288;2.794;2022-08-07T19:53:27;2.53;;;1.40;;
65092;SDS011;52025;50.288;2.794;2022-08-07T19:55:52;2.40;;;1.30;;
65092;SDS011;52025;50.288;2.794;2022-08-07T19:58:18;2.00;;;1.10;;
65092;SDS011;52025;50.288;2.794;2022-08-07T20:00:45;1.80;;;1.10;;
65092;SDS011;52025;50.288;2.794;2022-08-07T20:03:16;1.85;;;1.00;;
65092;SDS011;52025;50.288;2.794;2022-08-07T20:08:49;2.28;;;1.08;;
65092;SDS011;52025;50.288;2.794;2022-08-07T20:11:21;3.75;;;1.60;;
65092;SDS011;52025;50.288;2.794;2022-08-07T20:13:50;2.00;;;1.15;;
65092;SDS011;52025;50.288;2.794;2022-08-07T20:16:27;4.28;;;1.50;;
65092;SDS011;52025;50.288;2.794;2022-08-07T20:22:22;2.45;;;1.10;;
65092;SDS011;52025;50.288;2.794;2022-08-07T21:02:29;3.50;;;1.27;;
65092;SDS011;52025;50.288;2.794;2022-08-07T21:05:14;2.28;;;1.05;;
65092;SDS011;52025;50.288;2.794;2022-08-07T21:07:42;2.55;;;1.35;;
65092;SDS011;52025;50.288;2.794;2022-08-07T21:10:12;2.75;;;1.30;;
65092;SDS011;52025;50.288;2.794;2022-08-07T21:12:41;3.72;;;1.25;;
65092;SDS011;52025;50.288;2.794;2022-08-07T21:21:33;3.03;;;1.35;;
65092;SDS011;52025;50.288;2.794;2022-08-07T21:24:05;2.25;;;1.30;;
65092;SDS011;52025;50.288;2.794;2022-08-07T21:26:42;3.53;;;1.30;;
65092;SDS011;52025;50.288;2.794;2022-08-07T21:29:20;4.28;;;1.60;;
65092;SDS011;52025;50.288;2.794;2022-08-07T21:53:42;3.17;;;1.65;;
